Aérodrome :
LOGIN :

S'inscrire | Disclaimer

   EN    FR    IT 

 










Légende :    VFR   VFR Marginal   IFR   IFR Intensif   IFR Très Intensif
Visi : 
Plafond : 
>= 8 km
>= 3000ft
5 à 8 km
1000 à 3000 ft
1500m à 5 km
500 à 1000 ft
800 à 1500m
200 à 500 ft
< 800m
< 200 ft
Symboles :   Orages  Brouillard  Fortes neiges  Fortes précipitations  Vent > 20 kt
SIGMETs :   Divers  Orages  Givrage  Turbulence  Onde Orograph.  Cendres Volcan.







- Altitude de l'aérodrome : 1106 ft
- Voir les cartes d'approche


LFSO - Nancy / Ochey

DERNIER METAR :
  • 221030Z AUTO 35010G21KT 300V060 CAVOK 17/06 Q1020 NOSIG

METARs EXPIRÉS :
  • 221000Z AUTO 32009KT 280V350 CAVOK 17/05 Q1020 NOSIG
  • 220930Z AUTO VRB06KT 9999 FEW041 16/06 Q1020 NOSIG
  • 220900Z AUTO 32007KT 270V030 9999 FEW038 16/06 Q1020
  • 220830Z AUTO 35008KT 320V040 9999 FEW003 15/07 Q1020
  • 220800Z AUTO 32008KT 290V360 CAVOK 14/07 Q1020 NOSIG

TAF TAF LFSO
Valide du 21 à 21h jusqu'au 22 à 21h UTC


2121/2221 34005KT CAVOK
Pas de NOTAMs connus pour ce terrain.



MET'MAP, la Météo Aéronautique d'un coup d'oeil ! - Copyright ORBIFLY Décembre 2007 - Disclaimer

ORBIFLY MET'MAP TEAM :

Programmation & Développement : Alexandra Zaïnal
Conception & Développement : Baudouin d'Aumeries
Co-Programmation & Développement : Marc-Olivier Méhu
Soutien technique & logistique : Manuel Goepfert

Contact : metmap@orbifly.com




SOURCES & CREDITS :

   NOAA